Time;durP1;ratioP1;P1;durP2;ratioP2;P2;SDS_P1;SDS_P2;PMS_P1;PMS_P2;Temp;Humidity;BMP_temperature;BMP_pressure;BME280_temperature;BME280_humidity;BME280_pressure;Samples;Min_cycle;Max_cycle;Signal;HPM_P1;HPM_P2
2023/06/01 00:04:09;;;;;;;10.30;5.20;;;;;;;14.81;62.45;99257.96;224134;180;139038;-68
2023/06/01 00:09:12;;;;;;;15.30;5.40;;;;;;;14.74;62.38;99255.11;223949;180;136977;-65
2023/06/01 00:14:16;;;;;;;11.60;5.10;;;;;;;14.69;62.52;99244.98;224030;180;143449;-67
2023/06/01 00:19:20;;;;;;;11.10;5.10;;;;;;;14.62;62.41;99245.42;223883;180;138893;-67
2023/06/01 00:24:25;;;;;;;12.60;5.60;;;;;;;14.55;62.55;99247.64;223727;180;137825;-66
2023/06/01 00:29:40;;;;;;;12.80;5.40;;;;;;;14.50;62.93;99251.58;223842;180;145975;-68
2023/06/01 00:34:43;;;;;;;13.20;5.40;;;;;;;14.43;62.86;99248.81;223766;181;138139;-66
2023/06/01 00:39:46;;;;;;;11.60;5.20;;;;;;;14.38;62.89;99247.23;223828;180;137037;-64
2023/06/01 00:44:49;;;;;;;15.10;5.10;;;;;;;14.30;62.98;99245.13;223789;181;145177;-65
2023/06/01 00:49:53;;;;;;;14.70;5.40;;;;;;;14.25;62.90;99250.89;223801;181;138411;-64
2023/06/01 00:54:56;;;;;;;9.50;4.70;;;;;;;14.20;63.14;99254.08;223841;181;137108;-64
2023/06/01 01:00:00;;;;;;;9.80;4.70;;;;;;;14.20;63.09;99253.55;223838;181;147103;-69
2023/06/01 01:05:09;;;;;;;12.20;4.90;;;;;;;14.22;63.07;99252.69;223757;181;138077;-67
2023/06/01 01:10:33;;;;;;;9.00;4.90;;;;;;;14.21;62.96;99246.87;223686;181;136647;-68
2023/06/01 01:15:51;;;;;;;10.20;4.80;;;;;;;14.18;62.72;99244.58;223760;181;145327;-68
2023/06/01 01:21:01;;;;;;;8.50;4.60;;;;;;;14.15;62.83;99245.52;223556;181;138450;-68
2023/06/01 01:26:19;;;;;;;7.70;4.20;;;;;;;14.07;62.44;99242.43;223707;182;136041;-68
2023/06/01 01:31:24;;;;;;;11.70;5.20;;;;;;;14.11;62.04;99238.56;223701;181;145411;-67
2023/06/01 01:36:29;;;;;;;9.10;5.00;;;;;;;14.05;62.11;99240.06;223607;180;139856;-65
2023/06/01 01:41:32;;;;;;;11.00;4.60;;;;;;;13.97;62.13;99238.62;223665;181;136388;-66
2023/06/01 01:46:48;;;;;;;12.30;5.00;;;;;;;13.90;62.26;99233.11;223665;181;145836;-64
2023/06/01 01:53:30;;;;;;;10.30;4.60;;;;;;;13.93;62.10;99226.63;222084;203;667019;-65
2023/06/01 01:58:34;;;;;;;13.40;4.80;;;;;;;13.93;60.62;99225.58;223811;182;136600;-67
2023/06/01 02:03:37;;;;;;;11.70;4.80;;;;;;;14.03;60.38;99223.98;223727;182;143509;-65
2023/06/01 02:08:40;;;;;;;8.70;4.40;;;;;;;14.03;60.75;99219.87;223735;182;138995;-65
2023/06/01 02:13:44;;;;;;;15.30;4.20;;;;;;;14.00;60.95;99215.11;223772;182;136063;-68
2023/06/01 02:18:47;;;;;;;15.70;4.60;;;;;;;13.92;61.35;99217.73;223728;182;143308;-66
2023/06/01 02:23:50;;;;;;;9.00;4.10;;;;;;;13.88;60.60;99216.09;223873;181;138561;-66
2023/06/01 02:33:32;;;;;;;9.30;4.40;;;;;;;13.91;60.53;99206.80;221843;192;665459;-66
2023/06/01 02:38:35;;;;;;;9.60;4.50;;;;;;;13.85;60.30;99201.35;223578;185;136043;-65
2023/06/01 02:43:39;;;;;;;9.80;4.80;;;;;;;13.84;59.46;99195.56;223793;182;144045;-67
2023/06/01 02:48:42;;;;;;;11.10;4.50;;;;;;;13.83;59.13;99197.79;223763;183;138378;-67
2023/06/01 02:53:48;;;;;;;10.30;4.60;;;;;;;13.80;59.10;99192.11;223829;182;136470;-67
2023/06/01 02:58:52;;;;;;;11.80;4.50;;;;;;;13.77;58.96;99188.95;223846;183;143825;-67
2023/06/01 03:04:11;;;;;;;10.70;4.50;;;;;;;13.73;59.06;99187.95;223763;182;138747;-65
2023/06/01 03:09:15;;;;;;;15.80;4.80;;;;;;;13.73;59.13;99189.02;223882;182;136595;-63
2023/06/01 03:14:30;;;;;;;10.00;4.70;;;;;;;13.75;59.25;99189.25;223695;182;146444;-68
2023/06/01 03:19:33;;;;;;;14.40;5.30;;;;;;;13.79;59.26;99191.13;223798;182;139114;-69
2023/06/01 03:24:41;;;;;;;12.70;4.60;;;;;;;13.79;59.35;99190.19;223713;182;137688;-69
2023/06/01 03:33:33;;;;;;;11.30;5.60;;;;;;;13.83;59.74;99187.21;221084;194;666348;-70
2023/06/01 03:38:37;;;;;;;14.40;6.10;;;;;;;13.89;60.11;99184.84;223552;185;136314;-68
2023/06/01 03:43:40;;;;;;;14.60;6.10;;;;;;;13.96;60.39;99185.55;223557;185;144082;-68
2023/06/01 03:48:43;;;;;;;13.90;6.80;;;;;;;14.05;60.46;99179.05;223682;183;138885;-66
2023/06/01 03:53:47;;;;;;;11.30;6.70;;;;;;;14.14;60.36;99180.11;223855;182;136710;-68
2023/06/01 03:58:51;;;;;;;11.90;6.60;;;;;;;14.27;60.08;99179.36;223851;182;143532;-68
2023/06/01 04:03:55;;;;;;;19.40;7.50;;;;;;;14.38;59.69;99177.09;223746;181;140056;-64
2023/06/01 04:09:00;;;;;;;16.20;6.90;;;;;;;14.48;59.25;99175.82;223799;181;136796;-69
2023/06/01 04:14:04;;;;;;;14.50;7.80;;;;;;;14.60;58.90;99176.85;223792;181;143248;-72
2023/06/01 04:19:08;;;;;;;18.10;8.60;;;;;;;14.70;58.68;99175.24;223793;181;138214;-71
2023/06/01 04:24:13;;;;;;;13.70;7.60;;;;;;;14.77;58.82;99170.71;223707;181;136686;-70
2023/06/01 04:29:21;;;;;;;24.80;8.30;;;;;;;14.87;59.00;99168.74;223771;182;145165;-68
2023/06/01 04:34:24;;;;;;;19.90;7.80;;;;;;;14.91;58.51;99166.21;223752;181;140010;-67
2023/06/01 04:39:29;;;;;;;16.10;7.30;;;;;;;14.99;58.26;99161.56;223616;182;137578;-67
2023/06/01 04:44:33;;;;;;;17.90;8.20;;;;;;;15.10;58.05;99157.25;223743;181;145899;-67
2023/06/01 04:49:41;;;;;;;18.80;8.20;;;;;;;15.24;57.72;99151.36;223783;181;138902;-68
2023/06/01 04:54:45;;;;;;;;;;;;;;;15.36;57.52;99150.71;223889;182;137202;-66
2023/06/01 04:59:50;;;;;;;17.50;7.70;;;;;;;15.51;57.55;99151.83;223753;181;144685;-67
2023/06/01 05:04:53;;;;;;;13.70;7.60;;;;;;;15.65;57.49;99150.77;223651;181;138759;-69
2023/06/01 05:09:57;;;;;;;19.50;7.70;;;;;;;15.76;57.14;99148.77;223863;183;136988;-69
2023/06/01 05:15:07;;;;;;;17.70;7.30;;;;;;;15.88;56.96;99149.98;223815;182;145631;-68
2023/06/01 05:20:12;;;;;;;16.20;7.40;;;;;;;15.98;56.85;99147.89;223714;181;138305;-67
2023/06/01 05:25:23;;;;;;;14.40;7.60;;;;;;;16.10;56.60;99145.77;223806;182;136329;-64
2023/06/01 05:33:41;;;;;;;19.30;8.10;;;;;;;16.33;56.55;99134.92;220197;192;665376;-65
2023/06/01 05:38:44;;;;;;;132.60;91.60;;;;;;;16.50;56.82;99131.56;223715;183;136543;-67
2023/06/01 05:43:48;;;;;;;18.60;9.60;;;;;;;16.67;56.21;99127.33;223722;182;143934;-67
2023/06/01 05:48:51;;;;;;;13.50;6.80;;;;;;;16.83;55.76;99132.83;223769;183;139431;-66
2023/06/01 05:53:55;;;;;;;13.40;6.70;;;;;;;16.97;55.33;99134.52;223792;183;137015;-69
2023/06/01 05:59:12;;;;;;;51.80;37.30;;;;;;;17.13;55.25;99129.85;223600;183;144225;-69
2023/06/01 08:05:30;;;;;;;12.10;3.50;;;;;;;20.56;43.33;99063.22;221309;193;665706;-67
2023/06/01 08:10:33;;;;;;;9.40;3.90;;;;;;;20.66;42.61;99059.77;223404;186;137637;-67
2023/06/01 08:15:37;;;;;;;5.30;3.40;;;;;;;20.76;42.06;99050.91;223489;185;143306;-65
2023/06/01 08:20:45;;;;;;;6.50;2.50;;;;;;;20.87;41.17;99040.55;223724;182;138375;-65
2023/06/01 08:25:52;;;;;;;7.40;2.50;;;;;;;20.95;39.56;99037.02;223741;182;137129;-65
2023/06/01 08:30:56;;;;;;;7.00;2.20;;;;;;;21.06;38.83;99032.30;223834;182;143766;-71
2023/06/01 08:35:59;;;;;;;6.20;2.80;;;;;;;21.19;38.42;99030.50;223750;182;139028;-66
2023/06/01 08:41:18;;;;;;;6.90;2.80;;;;;;;21.33;38.46;99022.91;223819;181;136230;-66
2023/06/01 08:46:22;;;;;;;8.50;2.90;;;;;;;21.47;38.00;99017.83;223753;181;143676;-66
2023/06/01 08:51:41;;;;;;;9.70;2.70;;;;;;;21.58;37.55;99017.31;223729;181;140153;-64
2023/06/01 08:56:45;;;;;;;6.60;2.40;;;;;;;21.71;37.01;99007.76;223760;181;136164;-64
2023/06/01 09:01:49;;;;;;;8.80;2.60;;;;;;;21.83;36.34;99005.23;223726;181;145258;-63
2023/06/01 09:06:54;;;;;;;8.90;2.70;;;;;;;21.93;36.22;98998.83;223697;181;138193;-66
2023/06/01 09:12:33;;;;;;;259.30;216.00;;;;;;;22.12;36.30;98994.52;223480;181;136791;-63
2023/06/01 09:17:37;;;;;;;9.10;5.70;;;;;;;22.36;36.60;98984.04;223622;182;145192;-64
2023/06/01 09:22:45;;;;;;;7.20;3.50;;;;;;;22.55;35.01;98977.94;223670;182;138878;-64
2023/06/01 09:33:27;;;;;;;5.10;2.70;;;;;;;22.88;35.16;98973.96;221695;204;666094;-63
2023/06/01 09:38:31;;;;;;;25.30;18.50;;;;;;;23.05;35.31;98970.39;223723;182;137005;-63
2023/06/01 09:43:37;;;;;;;6.20;3.00;;;;;;;23.23;35.01;98967.32;223793;181;143466;-64
2023/06/01 09:48:42;;;;;;;393.30;314.20;;;;;;;23.27;35.15;98960.78;223668;181;139036;-64
2023/06/01 09:53:45;;;;;;;11.80;7.80;;;;;;;23.42;34.96;98960.18;223640;181;137060;-64
2023/06/01 09:58:56;;;;;;;6.90;3.50;;;;;;;23.56;34.72;98960.16;223642;181;143287;-64
2023/06/01 10:04:09;;;;;;;7.30;3.30;;;;;;;23.64;34.35;98954.57;223581;181;140015;-67
2023/06/01 10:09:18;;;;;;;18.30;11.60;;;;;;;23.67;34.20;98951.42;223777;181;136688;-67
2023/06/01 10:14:23;;;;;;;8.00;4.50;;;;;;;23.80;33.71;98945.73;223646;183;143094;-64
2023/06/01 10:19:30;;;;;;;14.90;3.60;;;;;;;24.08;33.93;98942.20;223686;181;138554;-63
2023/06/01 10:24:41;;;;;;;79.60;62.80;;;;;;;24.33;34.06;98932.51;223706;181;136596;-65
2023/06/01 10:33:55;;;;;;;12.20;3.70;;;;;;;24.64;34.14;98929.65;219888;191;665942;-64
2023/06/01 10:39:30;;;;;;;18.20;9.50;;;;;;;24.86;34.47;98924.23;222196;186;136490;-65
2023/06/01 10:44:40;;;;;;;5.20;3.10;;;;;;;24.94;33.91;98911.58;223563;185;143827;-64
2023/06/01 10:49:49;;;;;;;10.40;3.00;;;;;;;25.09;33.50;98914.80;223423;184;138056;-63
2023/06/01 10:55:11;;;;;;;10.70;3.60;;;;;;;25.21;33.65;98902.78;224001;180;136989;-62
2023/06/01 11:00:18;;;;;;;6.70;3.30;;;;;;;25.26;33.79;98894.17;223872;180;143448;-64
2023/06/01 11:05:37;;;;;;;11.80;3.70;;;;;;;25.33;33.34;98898.05;223964;181;138352;-63
2023/06/01 11:11:00;;;;;;;8.00;3.30;;;;;;;25.45;33.51;98888.88;223922;181;136844;-63
2023/06/01 11:16:03;;;;;;;7.70;3.10;;;;;;;25.57;32.48;98880.44;223978;180;144374;-63
2023/06/01 11:21:21;;;;;;;10.60;5.80;;;;;;;25.76;32.15;98876.26;223911;181;138444;-63
2023/06/01 11:26:34;;;;;;;10.30;4.70;;;;;;;25.92;32.22;98869.77;223955;181;136673;-64
2023/06/01 11:31:49;;;;;;;12.60;5.40;;;;;;;26.09;31.65;98861.21;223847;181;145818;-63
2023/06/01 11:36:52;;;;;;;8.40;4.10;;;;;;;26.15;30.04;98855.05;223980;181;138409;-65
2023/06/01 11:42:07;;;;;;;7.00;3.30;;;;;;;26.21;30.55;98848.66;223962;181;136962;-64
2023/06/01 11:47:12;;;;;;;10.00;3.00;;;;;;;26.42;31.10;98842.27;223787;181;147503;-65
2023/06/01 11:52:17;;;;;;;4.60;2.80;;;;;;;26.65;30.25;98839.34;223690;181;138421;-64
2023/06/01 11:57:21;;;;;;;;;;;;;;;26.74;29.11;98840.14;223691;181;136974;-68
2023/06/01 12:02:29;;;;;;;6.60;3.70;;;;;;;26.84;28.98;98830.81;223827;181;145362;-64
2023/06/01 12:07:54;;;;;;;6.30;3.30;;;;;;;26.97;29.50;98827.66;223852;181;139329;-64
2023/06/01 12:12:57;;;;;;;7.10;3.10;;;;;;;27.01;28.34;98827.67;223741;181;137071;-65
2023/06/01 12:18:00;;;;;;;8.50;2.90;;;;;;;27.02;28.72;98820.73;223740;181;145536;-64
2023/06/01 12:23:15;;;;;;;5.80;2.60;;;;;;;26.96;28.04;98817.20;223699;181;140888;-65
2023/06/01 12:28:24;;;;;;;10.50;2.50;;;;;;;26.89;26.55;98809.20;223119;181;137550;-64
2023/06/01 12:33:36;;;;;;;14.40;3.40;;;;;;;26.90;27.90;98806.59;223747;181;147162;-65
2023/06/01 12:38:52;;;;;;;8.50;4.10;;;;;;;27.06;28.39;98800.50;223677;181;139155;-64
2023/06/01 12:43:56;;;;;;;7.20;3.50;;;;;;;27.28;28.25;98797.36;223688;181;137290;-65
2023/06/01 12:49:17;;;;;;;9.00;2.40;;;;;;;27.61;27.63;98790.22;223876;181;145828;-64
2023/06/01 12:54:20;;;;;;;6.30;2.60;;;;;;;27.90;25.57;98778.73;223769;181;139340;-64
2023/06/01 12:59:23;;;;;;;5.00;2.40;;;;;;;28.24;25.91;98771.45;223680;181;136763;-64
2023/06/01 13:04:28;;;;;;;6.10;2.50;;;;;;;28.64;26.19;98761.36;223825;181;147064;-64
2023/06/01 13:09:34;;;;;;;9.20;5.20;;;;;;;28.99;23.85;98758.28;223679;181;139608;-64
2023/06/01 13:14:37;;;;;;;5.40;2.60;;;;;;;29.15;22.56;98754.52;223648;181;137174;-62
2023/06/01 13:19:40;;;;;;;14.60;3.20;;;;;;;29.16;22.07;98754.12;223777;181;146493;-62
2023/06/01 13:24:46;;;;;;;7.80;2.50;;;;;;;29.13;23.06;98745.11;223817;181;138370;-63
2023/06/01 13:29:52;;;;;;;6.90;2.50;;;;;;;29.23;23.71;98735.76;223751;181;137790;-63
2023/06/01 13:34:56;;;;;;;6.30;2.50;;;;;;;29.33;22.66;98735.38;223657;181;144961;-63
2023/06/01 13:39:59;;;;;;;8.30;2.40;;;;;;;29.19;21.28;98729.55;223460;181;138701;-63
2023/06/01 13:45:03;;;;;;;6.90;2.30;;;;;;;29.15;21.33;98729.04;223687;181;137149;-62
2023/06/01 13:50:07;;;;;;;15.70;10.10;;;;;;;29.29;21.50;98724.30;223501;181;145612;-64
2023/06/01 13:55:11;;;;;;;8.70;3.80;;;;;;;29.46;21.37;98715.06;223611;181;138209;-64
2023/06/01 14:00:15;;;;;;;7.90;4.30;;;;;;;29.66;21.51;98708.79;223683;181;137065;-64
2023/06/01 14:05:18;;;;;;;15.30;3.40;;;;;;;29.87;21.78;98700.20;223850;181;147646;-64
2023/06/01 14:10:34;;;;;;;7.90;2.80;;;;;;;29.97;22.22;98698.03;223615;181;138116;-63
2023/06/01 14:15:37;;;;;;;15.00;3.40;;;;;;;30.00;23.08;98690.10;223715;181;136453;-63
2023/06/01 14:20:43;;;;;;;5.90;2.10;;;;;;;29.96;22.91;98680.81;223743;181;145529;-63
2023/06/01 14:25:55;;;;;;;4.00;2.30;;;;;;;29.83;20.26;98678.67;223626;181;138396;-63
2023/06/01 14:30:58;;;;;;;8.90;2.50;;;;;;;29.70;19.92;98679.49;223703;181;136403;-64
2023/06/01 14:36:02;;;;;;;6.50;2.60;;;;;;;29.53;20.00;98675.64;223614;181;146449;-64
2023/06/01 14:41:06;;;;;;;9.80;3.20;;;;;;;29.25;19.74;98670.05;223785;181;138206;-64
2023/06/01 14:46:09;;;;;;;16.00;9.70;;;;;;;28.98;20.16;98664.77;223701;181;137164;-63
2023/06/01 14:51:12;;;;;;;4.80;2.80;;;;;;;28.74;19.60;98656.72;223770;181;145337;-63
2023/06/01 14:56:16;;;;;;;8.40;4.80;;;;;;;28.55;20.76;98652.81;223717;181;138275;-62
2023/06/01 15:01:19;;;;;;;6.30;3.00;;;;;;;28.34;23.33;98645.88;223779;181;140421;-62
2023/06/01 15:06:22;;;;;;;7.70;2.70;;;;;;;28.14;23.53;98646.19;223693;181;145004;-63
2023/06/01 15:11:26;;;;;;;10.60;2.80;;;;;;;27.90;23.45;98642.27;223640;181;139307;-64
2023/06/01 15:16:29;;;;;;;5.20;2.50;;;;;;;27.73;23.43;98634.89;223744;181;137471;-63
2023/06/01 15:21:33;;;;;;;81.80;71.60;;;;;;;27.60;24.61;98627.60;223755;181;146013;-66
2023/06/01 15:26:37;;;;;;;113.40;100.50;;;;;;;27.49;25.57;98624.80;223635;181;139632;-63
2023/06/01 15:31:41;;;;;;;15.90;8.30;;;;;;;27.45;25.91;98621.42;223705;181;137038;-64
2023/06/01 15:36:44;;;;;;;14.10;3.30;;;;;;;27.42;26.19;98622.39;223684;181;145608;-64
2023/06/01 15:41:48;;;;;;;108.90;86.50;;;;;;;27.34;26.19;98618.08;223732;181;139135;-63
2023/06/01 15:46:51;;;;;;;14.50;7.50;;;;;;;27.25;26.50;98615.73;223783;181;137251;-63
2023/06/01 15:51:54;;;;;;;16.60;7.20;;;;;;;27.10;26.82;98609.36;223822;181;147457;-63
2023/06/01 15:56:57;;;;;;;7.90;3.50;;;;;;;26.98;26.71;98606.83;223715;181;140315;-63
2023/06/01 16:02:01;;;;;;;8.50;4.30;;;;;;;26.86;27.06;98598.23;223879;193;136554;-63
2023/06/01 16:07:04;;;;;;;20.70;4.00;;;;;;;26.77;27.01;98596.97;223898;181;145227;-63
2023/06/01 16:12:08;;;;;;;7.50;2.90;;;;;;;26.67;26.99;98596.30;223778;181;138278;-65
2023/06/01 16:17:12;;;;;;;8.90;2.70;;;;;;;26.55;26.72;98594.61;223721;181;137269;-65
2023/06/01 16:22:16;;;;;;;7.70;2.20;;;;;;;26.43;26.60;98591.92;223747;181;145654;-65
2023/06/01 16:27:19;;;;;;;13.20;8.00;;;;;;;26.31;25.95;98593.55;223695;181;139192;-66
2023/06/01 16:32:24;;;;;;;10.80;2.80;;;;;;;26.21;26.29;98589.41;223755;181;137529;-67
2023/06/01 16:37:28;;;;;;;6.60;2.40;;;;;;;26.16;26.28;98582.81;223662;177;145912;-65
2023/06/01 16:42:31;;;;;;;9.50;4.20;;;;;;;26.09;26.40;98583.26;223675;181;138762;-65
2023/06/01 16:47:35;;;;;;;8.60;5.80;;;;;;;26.04;26.51;98581.22;223738;181;139512;-66
2023/06/01 16:52:38;;;;;;;9.10;5.50;;;;;;;25.99;27.00;98581.54;223619;181;145423;-65
2023/06/01 16:57:44;;;;;;;8.30;4.40;;;;;;;25.95;26.63;98576.88;223534;181;138841;-66
2023/06/01 17:02:47;;;;;;;7.80;2.60;;;;;;;25.89;25.71;98577.11;223704;181;138498;-67
2023/06/01 17:07:57;;;;;;;7.00;2.10;;;;;;;25.84;25.34;98575.33;223660;180;146610;-65
2023/06/01 17:13:05;;;;;;;7.80;2.20;;;;;;;25.79;25.59;98571.77;223723;181;139234;-67
2023/06/01 17:18:10;;;;;;;5.70;2.10;;;;;;;25.73;25.85;98570.39;223748;181;137965;-67
2023/06/01 17:23:14;;;;;;;4.80;2.00;;;;;;;25.66;26.32;98567.98;223788;181;147202;-68
2023/06/01 17:28:17;;;;;;;6.10;2.40;;;;;;;25.63;26.98;98569.39;223748;181;138443;-65
2023/06/01 17:33:21;;;;;;;24.60;12.50;;;;;;;25.58;27.30;98562.59;223641;181;137618;-64
2023/06/01 17:38:24;;;;;;;42.80;35.20;;;;;;;25.53;27.64;98560.49;223798;214;145874;-70
2023/06/01 17:43:27;;;;;;;12.60;5.60;;;;;;;25.46;28.44;98562.90;223728;214;140279;-69
2023/06/01 18:33:36;;;;;;;17.60;9.80;;;;;;;24.89;31.25;98568.83;222112;188;665802;-67
2023/06/01 18:38:40;;;;;;;9.10;4.70;;;;;;;24.80;31.40;98568.33;223515;183;137243;-66
2023/06/01 18:43:48;;;;;;;18.40;7.90;;;;;;;24.71;31.36;98568.81;223556;216;143359;-65
2023/06/01 18:48:52;;;;;;;13.60;4.60;;;;;;;24.62;31.29;98573.05;223460;216;139008;-66
2023/06/01 19:33:34;;;;;;;12.80;5.00;;;;;;;23.69;34.22;98590.20;221247;215;665001;-67
2023/06/01 19:38:38;;;;;;;13.40;4.30;;;;;;;23.52;34.72;98590.95;223484;216;137293;-67
2023/06/01 19:43:43;;;;;;;10.90;4.80;;;;;;;23.41;34.64;98589.56;223580;216;143886;-65
2023/06/01 19:48:48;;;;;;;9.60;4.50;;;;;;;23.32;34.80;98583.85;223472;216;140226;-64
2023/06/01 19:54:02;;;;;;;10.00;4.50;;;;;;;23.22;35.06;98589.42;223574;204;136963;-66
2023/06/01 19:59:09;;;;;;;10.40;4.50;;;;;;;23.10;35.44;98590.98;223548;193;143399;-68
2023/06/01 20:04:13;;;;;;;14.70;4.20;;;;;;;23.00;35.30;98593.32;223529;200;138720;-67
2023/06/01 20:09:18;;;;;;;11.50;4.40;;;;;;;22.97;35.33;98591.27;223578;187;136597;-64
2023/06/01 20:14:26;;;;;;;14.50;5.70;;;;;;;22.87;35.58;98593.59;223497;193;143508;-66
2023/06/01 20:19:30;;;;;;;9.80;4.40;;;;;;;22.77;36.10;98601.02;223522;184;140783;-66
2023/06/01 20:24:33;;;;;;;10.90;4.90;;;;;;;22.62;36.65;98603.15;223506;212;136281;-66
2023/06/01 20:29:37;;;;;;;9.90;6.00;;;;;;;22.50;36.72;98604.71;223522;209;145595;-67
2023/06/01 20:34:40;;;;;;;26.00;7.10;;;;;;;22.41;36.70;98607.19;223488;185;138058;-67
2023/06/01 20:39:43;;;;;;;14.80;4.80;;;;;;;22.29;37.17;98609.17;223504;217;137873;-66
2023/06/01 20:44:46;;;;;;;10.90;4.50;;;;;;;22.15;37.69;98610.77;223599;194;147257;-67
2023/06/01 20:49:49;;;;;;;15.30;4.50;;;;;;;22.00;37.84;98606.76;223507;194;138917;-66
2023/06/01 20:54:53;;;;;;;13.90;4.00;;;;;;;21.91;37.86;98606.08;223509;210;137178;-65
2023/06/01 20:59:56;;;;;;;12.20;3.90;;;;;;;21.86;38.24;98605.39;223513;216;145137;-65
2023/06/01 21:04:59;;;;;;;18.50;5.00;;;;;;;21.72;39.13;98604.44;223501;207;139774;-67
2023/06/01 21:10:03;;;;;;;14.70;4.10;;;;;;;21.52;39.81;98606.73;223641;207;137200;-67
2023/06/01 21:15:07;;;;;;;13.00;5.30;;;;;;;21.28;40.96;98609.81;223631;214;145052;-70
2023/06/01 21:20:11;;;;;;;15.20;5.20;;;;;;;21.02;42.26;98609.37;222289;208;138499;-68
2023/06/01 21:25:14;;;;;;;17.70;4.50;;;;;;;20.84;41.89;98607.02;223509;192;136910;-66
2023/06/01 21:30:17;;;;;;;19.80;5.90;;;;;;;20.73;43.61;98615.02;223513;181;145460;-69
2023/06/01 21:35:21;;;;;;;13.00;5.10;;;;;;;20.48;45.30;98612.27;223775;214;138397;-69
2023/06/01 21:40:24;;;;;;;14.20;4.70;;;;;;;20.26;45.96;98619.64;223826;214;137400;-68
2023/06/01 21:45:27;;;;;;;19.50;5.50;;;;;;;20.15;45.71;98619.46;223741;182;145838;-69
2023/06/01 21:50:30;;;;;;;15.60;5.30;;;;;;;19.99;46.20;98619.02;223693;208;138780;-68
2023/06/01 21:55:33;;;;;;;12.40;4.60;;;;;;;19.83;46.83;98615.70;223650;203;136745;-67
2023/06/01 22:00:36;;;;;;;11.60;4.70;;;;;;;19.71;47.10;98614.83;223687;214;145715;-67
2023/06/01 22:05:40;;;;;;;9.50;4.50;;;;;;;19.72;45.88;98613.45;223794;214;138712;-70
2023/06/01 22:10:43;;;;;;;14.10;5.10;;;;;;;19.73;46.40;98612.49;223632;181;137224;-70
2023/06/01 22:15:46;;;;;;;11.50;5.30;;;;;;;19.78;45.62;98612.45;223469;181;145873;-69
2023/06/01 22:20:49;;;;;;;14.50;5.20;;;;;;;19.89;45.04;98613.09;223501;208;138993;-66
2023/06/01 22:25:53;;;;;;;13.20;5.50;;;;;;;19.96;44.88;98609.62;223704;186;139572;-66
2023/06/01 22:30:56;;;;;;;11.50;5.20;;;;;;;20.04;44.72;98611.73;223634;198;145166;-64
2023/06/01 22:36:02;;;;;;;11.00;5.10;;;;;;;20.11;44.27;98611.64;223645;214;140009;-64
2023/06/01 22:41:06;;;;;;;19.10;5.60;;;;;;;20.17;44.34;98612.70;223781;203;137171;-69
2023/06/01 22:46:10;;;;;;;11.50;5.10;;;;;;;20.21;44.28;98604.19;223561;203;146665;-70
2023/06/01 22:51:15;;;;;;;9.90;4.40;;;;;;;20.23;44.31;98607.95;223677;203;139003;-65
2023/06/01 22:56:38;;;;;;;11.50;5.50;;;;;;;20.20;44.39;98608.65;223652;214;138018;-69
2023/06/01 23:01:41;;;;;;;16.20;5.30;;;;;;;20.20;44.47;98607.56;223630;203;145190;-70
2023/06/01 23:06:48;;;;;;;12.10;4.90;;;;;;;20.17;44.46;98611.66;223491;192;138242;-69
2023/06/01 23:11:51;;;;;;;11.00;5.50;;;;;;;20.12;44.56;98609.65;223623;215;136289;-67
2023/06/01 23:17:03;;;;;;;14.00;5.60;;;;;;;20.03;44.89;98611.73;223579;203;145379;-70
2023/06/01 23:22:08;;;;;;;11.50;5.40;;;;;;;19.92;45.17;98605.55;223726;187;154343;-70
2023/06/01 23:27:11;;;;;;;10.80;6.10;;;;;;;19.85;45.35;98608.13;223791;215;138042;-69
2023/06/01 23:32:14;;;;;;;13.60;5.60;;;;;;;19.79;45.57;98604.45;223897;192;145193;-70
2023/06/01 23:37:18;;;;;;;16.70;5.80;;;;;;;19.75;45.66;98604.10;223733;192;138580;-68
2023/06/01 23:42:21;;;;;;;10.60;5.60;;;;;;;19.72;45.88;98602.84;223544;192;137467;-73
2023/06/01 23:47:25;;;;;;;14.40;6.10;;;;;;;19.65;46.19;98597.62;223611;215;145931;-70
2023/06/01 23:52:28;;;;;;;14.90;7.10;;;;;;;19.59;46.49;98600.91;223685;215;139414;-66
2023/06/01 23:57:31;;;;;;;19.80;6.90;;;;;;;19.55;46.75;98604.23;223625;181;136379;-70
